sensor_id;sensor_type;location;lat;lon;timestamp;temperature;humidity
2889;DHT22;1453;42.708;23.282;2022-08-21T00:02:21;20.00;99.90
2889;DHT22;1453;42.708;23.282;2022-08-21T00:04:49;19.90;99.90
2889;DHT22;1453;42.708;23.282;2022-08-21T00:07:17;19.90;99.90
2889;DHT22;1453;42.708;23.282;2022-08-21T00:09:47;19.80;99.90
2889;DHT22;1453;42.708;23.282;2022-08-21T00:12:13;19.80;99.90
2889;DHT22;1453;42.708;23.282;2022-08-21T00:14:40;19.80;99.90
2889;DHT22;1453;42.708;23.282;2022-08-21T00:17:06;19.60;99.90
2889;DHT22;1453;42.708;23.282;2022-08-21T00:19:32;19.60;99.90
2889;DHT22;1453;42.708;23.282;2022-08-21T00:21:59;19.60;99.90
2889;DHT22;1453;42.708;23.282;2022-08-21T00:24:25;19.60;99.90
2889;DHT22;1453;42.708;23.282;2022-08-21T00:26:51;19.60;99.90
2889;DHT22;1453;42.708;23.282;2022-08-21T00:29:18;19.50;99.90
2889;DHT22;1453;42.708;23.282;2022-08-21T00:31:45;19.60;99.90
2889;DHT22;1453;42.708;23.282;2022-08-21T00:34:11;19.60;99.90
2889;DHT22;1453;42.708;23.282;2022-08-21T00:36:38;19.60;99.90
2889;DHT22;1453;42.708;23.282;2022-08-21T00:39:06;19.60;99.90
2889;DHT22;1453;42.708;23.282;2022-08-21T00:41:35;19.40;99.90
2889;DHT22;1453;42.708;23.282;2022-08-21T00:44:03;19.10;99.90
2889;DHT22;1453;42.708;23.282;2022-08-21T00:46:29;18.80;99.90
2889;DHT22;1453;42.708;23.282;2022-08-21T00:48:55;18.80;99.90
2889;DHT22;1453;42.708;23.282;2022-08-21T00:54:26;18.80;99.90
2889;DHT22;1453;42.708;23.282;2022-08-21T00:56:57;19.00;99.90
2889;DHT22;1453;42.708;23.282;2022-08-21T00:59:27;19.20;99.90
2889;DHT22;1453;42.708;23.282;2022-08-21T01:01:55;19.00;99.90
2889;DHT22;1453;42.708;23.282;2022-08-21T01:04:22;18.70;99.90
2889;DHT22;1453;42.708;23.282;2022-08-21T01:06:48;18.70;99.90
2889;DHT22;1453;42.708;23.282;2022-08-21T01:09:14;18.80;99.90
2889;DHT22;1453;42.708;23.282;2022-08-21T01:11:41;18.70;99.90
2889;DHT22;1453;42.708;23.282;2022-08-21T01:14:11;18.90;99.90
2889;DHT22;1453;42.708;23.282;2022-08-21T01:16:40;18.80;99.90
2889;DHT22;1453;42.708;23.282;2022-08-21T01:19:07;18.90;99.90
2889;DHT22;1453;42.708;23.282;2022-08-21T01:21:34;18.70;99.90
2889;DHT22;1453;42.708;23.282;2022-08-21T01:24:00;18.50;99.90
2889;DHT22;1453;42.708;23.282;2022-08-21T01:26:30;18.70;99.90
2889;DHT22;1453;42.708;23.282;2022-08-21T01:31:38;18.70;99.90
2889;DHT22;1453;42.708;23.282;2022-08-21T01:34:04;18.70;99.90
2889;DHT22;1453;42.708;23.282;2022-08-21T01:36:31;18.40;99.90
2889;DHT22;1453;42.708;23.282;2022-08-21T01:38:57;18.60;99.90
2889;DHT22;1453;42.708;23.282;2022-08-21T01:41:23;18.70;99.90
2889;DHT22;1453;42.708;23.282;2022-08-21T01:43:49;18.70;99.90
2889;DHT22;1453;42.708;23.282;2022-08-21T01:46:16;18.80;99.90
2889;DHT22;1453;42.708;23.282;2022-08-21T01:48:42;19.00;99.90
2889;DHT22;1453;42.708;23.282;2022-08-21T01:51:09;18.90;99.90
2889;DHT22;1453;42.708;23.282;2022-08-21T01:53:36;19.10;99.90
2889;DHT22;1453;42.708;23.282;2022-08-21T01:56:05;19.10;99.90
2889;DHT22;1453;42.708;23.282;2022-08-21T01:58:34;19.20;99.90
2889;DHT22;1453;42.708;23.282;2022-08-21T02:01:00;19.20;99.90
2889;DHT22;1453;42.708;23.282;2022-08-21T02:03:28;19.20;99.90
2889;DHT22;1453;42.708;23.282;2022-08-21T02:05:54;19.30;99.90
2889;DHT22;1453;42.708;23.282;2022-08-21T02:08:20;19.10;99.90
2889;DHT22;1453;42.708;23.282;2022-08-21T02:10:48;19.00;99.90
2889;DHT22;1453;42.708;23.282;2022-08-21T02:13:15;19.00;99.90
2889;DHT22;1453;42.708;23.282;2022-08-21T02:15:41;19.10;99.90
2889;DHT22;1453;42.708;23.282;2022-08-21T02:18:07;19.20;99.90
2889;DHT22;1453;42.708;23.282;2022-08-21T02:20:39;19.30;99.90
2889;DHT22;1453;42.708;23.282;2022-08-21T02:23:08;19.40;99.90
2889;DHT22;1453;42.708;23.282;2022-08-21T02:25:36;19.40;99.90
2889;DHT22;1453;42.708;23.282;2022-08-21T02:28:08;19.40;99.90
2889;DHT22;1453;42.708;23.282;2022-08-21T02:30:42;19.40;99.90
2889;DHT22;1453;42.708;23.282;2022-08-21T02:33:11;19.30;99.90
2889;DHT22;1453;42.708;23.282;2022-08-21T02:35:40;19.30;99.90
2889;DHT22;1453;42.708;23.282;2022-08-21T02:38:12;19.10;99.90
2889;DHT22;1453;42.708;23.282;2022-08-21T02:40:42;19.10;99.90
2889;DHT22;1453;42.708;23.282;2022-08-21T02:43:10;18.70;99.90
2889;DHT22;1453;42.708;23.282;2022-08-21T02:45:38;18.40;99.90
2889;DHT22;1453;42.708;23.282;2022-08-21T02:48:08;18.20;99.90
2889;DHT22;1453;42.708;23.282;2022-08-21T02:50:42;18.00;99.90
2889;DHT22;1453;42.708;23.282;2022-08-21T02:53:29;18.00;99.90
2889;DHT22;1453;42.708;23.282;2022-08-21T02:55:58;18.00;99.90
2889;DHT22;1453;42.708;23.282;2022-08-21T02:58:30;18.10;99.90
2889;DHT22;1453;42.708;23.282;2022-08-21T03:00:57;18.30;99.90
2889;DHT22;1453;42.708;23.282;2022-08-21T03:03:24;18.50;99.90
2889;DHT22;1453;42.708;23.282;2022-08-21T03:05:52;18.70;99.90
2889;DHT22;1453;42.708;23.282;2022-08-21T03:08:19;18.90;99.90
2889;DHT22;1453;42.708;23.282;2022-08-21T03:10:51;19.10;99.90
2889;DHT22;1453;42.708;23.282;2022-08-21T03:13:19;19.20;99.90
2889;DHT22;1453;42.708;23.282;2022-08-21T03:15:47;19.40;99.90
2889;DHT22;1453;42.708;23.282;2022-08-21T03:18:14;19.40;99.90
2889;DHT22;1453;42.708;23.282;2022-08-21T03:20:41;19.40;99.90
2889;DHT22;1453;42.708;23.282;2022-08-21T03:23:08;19.30;99.90
2889;DHT22;1453;42.708;23.282;2022-08-21T03:25:35;19.20;99.90
2889;DHT22;1453;42.708;23.282;2022-08-21T03:28:02;19.30;99.90
2889;DHT22;1453;42.708;23.282;2022-08-21T03:30:30;19.20;99.90
2889;DHT22;1453;42.708;23.282;2022-08-21T03:32:57;19.30;99.90
2889;DHT22;1453;42.708;23.282;2022-08-21T03:35:25;19.30;99.90
2889;DHT22;1453;42.708;23.282;2022-08-21T03:37:51;19.30;99.90
2889;DHT22;1453;42.708;23.282;2022-08-21T03:40:18;19.40;99.90
2889;DHT22;1453;42.708;23.282;2022-08-21T03:42:46;19.40;99.90
2889;DHT22;1453;42.708;23.282;2022-08-21T03:45:16;19.30;99.90
2889;DHT22;1453;42.708;23.282;2022-08-21T03:48:02;19.30;99.90
2889;DHT22;1453;42.708;23.282;2022-08-21T03:50:32;19.30;99.90
2889;DHT22;1453;42.708;23.282;2022-08-21T03:52:59;19.20;99.90
2889;DHT22;1453;42.708;23.282;2022-08-21T03:55:25;19.10;99.90
2889;DHT22;1453;42.708;23.282;2022-08-21T03:57:52;19.20;99.90
2889;DHT22;1453;42.708;23.282;2022-08-21T04:00:18;19.10;99.90
2889;DHT22;1453;42.708;23.282;2022-08-21T04:02:45;19.20;99.90
2889;DHT22;1453;42.708;23.282;2022-08-21T04:05:14;19.30;99.90
2889;DHT22;1453;42.708;23.282;2022-08-21T04:07:59;19.30;99.90
2889;DHT22;1453;42.708;23.282;2022-08-21T04:10:27;19.30;99.90
2889;DHT22;1453;42.708;23.282;2022-08-21T04:12:54;19.20;99.90
2889;DHT22;1453;42.708;23.282;2022-08-21T04:15:21;19.20;99.90
2889;DHT22;1453;42.708;23.282;2022-08-21T04:17:48;19.20;99.90
2889;DHT22;1453;42.708;23.282;2022-08-21T04:20:16;19.10;99.90
2889;DHT22;1453;42.708;23.282;2022-08-21T04:22:42;19.30;99.90
2889;DHT22;1453;42.708;23.282;2022-08-21T04:25:10;19.30;99.90
2889;DHT22;1453;42.708;23.282;2022-08-21T04:27:37;19.20;99.90
2889;DHT22;1453;42.708;23.282;2022-08-21T04:30:05;19.30;99.90
2889;DHT22;1453;42.708;23.282;2022-08-21T04:32:32;19.40;99.90
2889;DHT22;1453;42.708;23.282;2022-08-21T04:35:00;19.50;99.90
2889;DHT22;1453;42.708;23.282;2022-08-21T04:37:29;19.50;99.90
2889;DHT22;1453;42.708;23.282;2022-08-21T04:39:56;19.40;99.90
2889;DHT22;1453;42.708;23.282;2022-08-21T04:42:27;19.00;99.90
2889;DHT22;1453;42.708;23.282;2022-08-21T04:44:54;19.00;99.90
2889;DHT22;1453;42.708;23.282;2022-08-21T04:47:21;19.10;99.90
2889;DHT22;1453;42.708;23.282;2022-08-21T04:49:47;19.30;99.90
2889;DHT22;1453;42.708;23.282;2022-08-21T04:52:17;19.30;99.90
2889;DHT22;1453;42.708;23.282;2022-08-21T04:54:45;19.40;99.90
2889;DHT22;1453;42.708;23.282;2022-08-21T04:57:15;19.40;99.90
2889;DHT22;1453;42.708;23.282;2022-08-21T04:59:46;19.50;99.90
2889;DHT22;1453;42.708;23.282;2022-08-21T05:02:14;19.60;99.90
2889;DHT22;1453;42.708;23.282;2022-08-21T05:04:46;19.70;99.90
2889;DHT22;1453;42.708;23.282;2022-08-21T05:07:26;19.80;99.90
2889;DHT22;1453;42.708;23.282;2022-08-21T05:09:54;19.90;99.90
2889;DHT22;1453;42.708;23.282;2022-08-21T05:12:20;20.00;99.90
2889;DHT22;1453;42.708;23.282;2022-08-21T05:14:47;20.10;99.90
2889;DHT22;1453;42.708;23.282;2022-08-21T05:17:13;20.20;99.90
2889;DHT22;1453;42.708;23.282;2022-08-21T05:19:39;20.40;99.90
2889;DHT22;1453;42.708;23.282;2022-08-21T05:22:05;20.50;99.90
2889;DHT22;1453;42.708;23.282;2022-08-21T05:24:32;20.60;99.90
2889;DHT22;1453;42.708;23.282;2022-08-21T05:26:58;20.50;99.90
2889;DHT22;1453;42.708;23.282;2022-08-21T05:29:24;20.50;99.90
2889;DHT22;1453;42.708;23.282;2022-08-21T05:31:50;20.60;99.90
2889;DHT22;1453;42.708;23.282;2022-08-21T05:34:22;20.60;99.90
2889;DHT22;1453;42.708;23.282;2022-08-21T05:36:49;20.50;99.90
2889;DHT22;1453;42.708;23.282;2022-08-21T05:39:15;20.30;99.90
2889;DHT22;1453;42.708;23.282;2022-08-21T05:41:41;20.50;99.90
2889;DHT22;1453;42.708;23.282;2022-08-21T05:44:07;20.40;99.90
2889;DHT22;1453;42.708;23.282;2022-08-21T05:46:33;20.50;99.90
2889;DHT22;1453;42.708;23.282;2022-08-21T05:48:59;20.70;99.90
2889;DHT22;1453;42.708;23.282;2022-08-21T05:51:25;20.90;99.90
2889;DHT22;1453;42.708;23.282;2022-08-21T05:53:50;20.90;99.90
2889;DHT22;1453;42.708;23.282;2022-08-21T05:56:16;20.90;99.90
2889;DHT22;1453;42.708;23.282;2022-08-21T05:58:42;20.80;99.90
2889;DHT22;1453;42.708;23.282;2022-08-21T06:01:09;20.70;99.90
2889;DHT22;1453;42.708;23.282;2022-08-21T06:03:39;20.50;99.90
2889;DHT22;1453;42.708;23.282;2022-08-21T06:06:06;20.30;99.90
2889;DHT22;1453;42.708;23.282;2022-08-21T06:08:32;20.20;99.90
2889;DHT22;1453;42.708;23.282;2022-08-21T06:10:59;20.20;99.90
2889;DHT22;1453;42.708;23.282;2022-08-21T06:13:26;20.10;99.90
2889;DHT22;1453;42.708;23.282;2022-08-21T06:16:13;20.20;99.90
2889;DHT22;1453;42.708;23.282;2022-08-21T06:18:40;20.20;99.90
2889;DHT22;1453;42.708;23.282;2022-08-21T06:21:07;20.60;99.90
2889;DHT22;1453;42.708;23.282;2022-08-21T06:23:34;21.40;99.90
2889;DHT22;1453;42.708;23.282;2022-08-21T06:26:05;22.30;99.90
2889;DHT22;1453;42.708;23.282;2022-08-21T06:28:33;23.00;99.90
2889;DHT22;1453;42.708;23.282;2022-08-21T06:31:00;23.00;99.90
2889;DHT22;1453;42.708;23.282;2022-08-21T06:33:26;23.30;99.90
2889;DHT22;1453;42.708;23.282;2022-08-21T06:35:52;23.80;99.90
2889;DHT22;1453;42.708;23.282;2022-08-21T06:38:18;24.20;99.90
2889;DHT22;1453;42.708;23.282;2022-08-21T06:40:45;24.10;99.90
2889;DHT22;1453;42.708;23.282;2022-08-21T06:43:13;24.00;99.90
2889;DHT22;1453;42.708;23.282;2022-08-21T06:45:40;23.90;99.90
2889;DHT22;1453;42.708;23.282;2022-08-21T06:48:07;23.80;99.90
2889;DHT22;1453;42.708;23.282;2022-08-21T06:50:33;23.40;99.90
2889;DHT22;1453;42.708;23.282;2022-08-21T06:53:08;23.10;99.90
2889;DHT22;1453;42.708;23.282;2022-08-21T06:55:37;22.60;99.90
2889;DHT22;1453;42.708;23.282;2022-08-21T06:58:04;22.30;99.90
2889;DHT22;1453;42.708;23.282;2022-08-21T07:00:31;22.10;99.90
2889;DHT22;1453;42.708;23.282;2022-08-21T07:02:57;22.10;99.90
2889;DHT22;1453;42.708;23.282;2022-08-21T07:05:28;21.90;99.90
2889;DHT22;1453;42.708;23.282;2022-08-21T07:07:55;21.60;99.90
2889;DHT22;1453;42.708;23.282;2022-08-21T07:10:22;21.50;99.90
2889;DHT22;1453;42.708;23.282;2022-08-21T07:12:52;21.70;99.90
2889;DHT22;1453;42.708;23.282;2022-08-21T07:15:20;21.70;99.90
2889;DHT22;1453;42.708;23.282;2022-08-21T07:17:46;22.00;99.90
2889;DHT22;1453;42.708;23.282;2022-08-21T07:20:12;21.90;99.90
2889;DHT22;1453;42.708;23.282;2022-08-21T07:22:38;22.00;99.90
2889;DHT22;1453;42.708;23.282;2022-08-21T07:25:07;22.00;99.90
2889;DHT22;1453;42.708;23.282;2022-08-21T07:27:33;21.90;99.90
2889;DHT22;1453;42.708;23.282;2022-08-21T07:29:59;21.90;99.90
2889;DHT22;1453;42.708;23.282;2022-08-21T07:32:25;22.30;99.90
2889;DHT22;1453;42.708;23.282;2022-08-21T07:34:50;23.00;99.90
2889;DHT22;1453;42.708;23.282;2022-08-21T07:37:16;24.00;99.90
2889;DHT22;1453;42.708;23.282;2022-08-21T07:39:42;24.70;99.90
2889;DHT22;1453;42.708;23.282;2022-08-21T07:42:09;25.40;99.90
2889;DHT22;1453;42.708;23.282;2022-08-21T07:44:36;25.20;99.90
2889;DHT22;1453;42.708;23.282;2022-08-21T07:47:02;24.80;99.90
2889;DHT22;1453;42.708;23.282;2022-08-21T07:49:28;25.50;99.90
2889;DHT22;1453;42.708;23.282;2022-08-21T07:51:54;26.40;99.90
2889;DHT22;1453;42.708;23.282;2022-08-21T07:54:20;25.60;99.90
2889;DHT22;1453;42.708;23.282;2022-08-21T07:56:46;26.60;99.90
2889;DHT22;1453;42.708;23.282;2022-08-21T07:59:12;26.80;99.90
2889;DHT22;1453;42.708;23.282;2022-08-21T08:01:38;27.40;99.90
2889;DHT22;1453;42.708;23.282;2022-08-21T08:04:04;28.40;99.90
2889;DHT22;1453;42.708;23.282;2022-08-21T08:06:29;28.20;99.90
2889;DHT22;1453;42.708;23.282;2022-08-21T08:08:58;28.20;99.90
2889;DHT22;1453;42.708;23.282;2022-08-21T08:11:24;27.80;99.90
2889;DHT22;1453;42.708;23.282;2022-08-21T08:13:51;27.30;99.90
2889;DHT22;1453;42.708;23.282;2022-08-21T08:16:18;27.10;99.90
2889;DHT22;1453;42.708;23.282;2022-08-21T08:18:44;26.30;99.90
2889;DHT22;1453;42.708;23.282;2022-08-21T08:21:11;26.70;99.90
2889;DHT22;1453;42.708;23.282;2022-08-21T08:23:38;27.50;99.90
2889;DHT22;1453;42.708;23.282;2022-08-21T08:26:04;27.10;99.90
2889;DHT22;1453;42.708;23.282;2022-08-21T08:28:32;28.40;99.90
2889;DHT22;1453;42.708;23.282;2022-08-21T08:30:59;29.10;99.90
2889;DHT22;1453;42.708;23.282;2022-08-21T08:33:25;28.20;99.90
2889;DHT22;1453;42.708;23.282;2022-08-21T08:35:52;29.30;99.90
2889;DHT22;1453;42.708;23.282;2022-08-21T08:38:20;30.00;99.90
2889;DHT22;1453;42.708;23.282;2022-08-21T08:43:32;29.40;99.90
2889;DHT22;1453;42.708;23.282;2022-08-21T08:46:04;29.00;99.90
2889;DHT22;1453;42.708;23.282;2022-08-21T08:51:00;27.30;99.90
2889;DHT22;1453;42.708;23.282;2022-08-21T08:53:48;28.00;99.90
2889;DHT22;1453;42.708;23.282;2022-08-21T08:56:19;27.90;99.90
2889;DHT22;1453;42.708;23.282;2022-08-21T08:58:50;28.30;99.90
2889;DHT22;1453;42.708;23.282;2022-08-21T09:01:19;28.90;99.90
2889;DHT22;1453;42.708;23.282;2022-08-21T09:03:47;29.70;99.90
2889;DHT22;1453;42.708;23.282;2022-08-21T09:09:02;30.50;95.50
2889;DHT22;1453;42.708;23.282;2022-08-21T09:23:34;30.90;96.00
2889;DHT22;1453;42.708;23.282;2022-08-21T09:26:27;31.60;93.50
2889;DHT22;1453;42.708;23.282;2022-08-21T09:28:58;31.20;92.00
2889;DHT22;1453;42.708;23.282;2022-08-21T09:31:33;30.90;93.10
2889;DHT22;1453;42.708;23.282;2022-08-21T09:34:06;31.20;92.80
2889;DHT22;1453;42.708;23.282;2022-08-21T09:36:42;31.70;92.70
2889;DHT22;1453;42.708;23.282;2022-08-21T09:39:11;32.50;92.20
2889;DHT22;1453;42.708;23.282;2022-08-21T09:41:39;31.70;90.20
2889;DHT22;1453;42.708;23.282;2022-08-21T09:44:07;30.60;90.60
2889;DHT22;1453;42.708;23.282;2022-08-21T09:46:34;30.60;92.50
2889;DHT22;1453;42.708;23.282;2022-08-21T09:49:03;30.70;92.80
2889;DHT22;1453;42.708;23.282;2022-08-21T09:51:33;30.50;92.10
2889;DHT22;1453;42.708;23.282;2022-08-21T09:59:39;28.30;94.90
2889;DHT22;1453;42.708;23.282;2022-08-21T10:02:28;27.40;98.70
2889;DHT22;1453;42.708;23.282;2022-08-21T10:05:02;27.40;99.30
2889;DHT22;1453;42.708;23.282;2022-08-21T10:07:30;27.10;99.90
2889;DHT22;1453;42.708;23.282;2022-08-21T10:10:13;26.70;99.90
2889;DHT22;1453;42.708;23.282;2022-08-21T10:13:24;26.80;99.90
2889;DHT22;1453;42.708;23.282;2022-08-21T10:25:30;27.60;99.90
2889;DHT22;1453;42.708;23.282;2022-08-21T10:28:24;28.50;99.90
2889;DHT22;1453;42.708;23.282;2022-08-21T10:39:35;29.00;98.70
2889;DHT22;1453;42.708;23.282;2022-08-21T10:42:17;28.80;99.00
2889;DHT22;1453;42.708;23.282;2022-08-21T10:47:57;27.90;99.90
2889;DHT22;1453;42.708;23.282;2022-08-21T10:53:45;28.90;99.90
2889;DHT22;1453;42.708;23.282;2022-08-21T10:56:31;29.60;98.70
2889;DHT22;1453;42.708;23.282;2022-08-21T11:02:17;29.10;97.80
2889;DHT22;1453;42.708;23.282;2022-08-21T11:05:02;30.40;97.40
2889;DHT22;1453;42.708;23.282;2022-08-21T11:07:39;31.60;93.80
2889;DHT22;1453;42.708;23.282;2022-08-21T11:13:04;30.90;93.60
2889;DHT22;1453;42.708;23.282;2022-08-21T11:18:41;32.30;93.20
2889;DHT22;1453;42.708;23.282;2022-08-21T11:21:29;33.90;90.00
2889;DHT22;1453;42.708;23.282;2022-08-21T11:27:18;33.60;88.50
2889;DHT22;1453;42.708;23.282;2022-08-21T11:29:52;33.20;88.10
2889;DHT22;1453;42.708;23.282;2022-08-21T11:35:38;32.60;86.20
2889;DHT22;1453;42.708;23.282;2022-08-21T11:38:20;32.10;87.70
2889;DHT22;1453;42.708;23.282;2022-08-21T11:47:18;32.20;86.70
2889;DHT22;1453;42.708;23.282;2022-08-21T11:50:15;32.50;86.10
2889;DHT22;1453;42.708;23.282;2022-08-21T11:52:51;31.50;87.70
2889;DHT22;1453;42.708;23.282;2022-08-21T11:55:30;29.90;90.30
2889;DHT22;1453;42.708;23.282;2022-08-21T11:58:09;30.30;90.40
2889;DHT22;1453;42.708;23.282;2022-08-21T12:00:55;29.80;90.50
2889;DHT22;1453;42.708;23.282;2022-08-21T12:03:30;29.10;91.20
2889;DHT22;1453;42.708;23.282;2022-08-21T12:06:10;28.70;91.40
2889;DHT22;1453;42.708;23.282;2022-08-21T12:08:43;28.30;92.80
2889;DHT22;1453;42.708;23.282;2022-08-21T12:16:46;27.50;94.90
2889;DHT22;1453;42.708;23.282;2022-08-21T12:19:31;27.20;95.90
2889;DHT22;1453;42.708;23.282;2022-08-21T12:24:33;26.60;99.40
2889;DHT22;1453;42.708;23.282;2022-08-21T12:29:49;26.30;99.90
2889;DHT22;1453;42.708;23.282;2022-08-21T12:34:47;25.90;99.90
2889;DHT22;1453;42.708;23.282;2022-08-21T12:37:20;26.10;99.90
2889;DHT22;1453;42.708;23.282;2022-08-21T12:40:00;25.90;99.90
2889;DHT22;1453;42.708;23.282;2022-08-21T12:42:41;25.80;99.90
2889;DHT22;1453;42.708;23.282;2022-08-21T12:45:34;25.80;99.90
2889;DHT22;1453;42.708;23.282;2022-08-21T12:48:33;25.70;99.90
2889;DHT22;1453;42.708;23.282;2022-08-21T12:53:52;25.50;99.90
2889;DHT22;1453;42.708;23.282;2022-08-21T12:56:25;25.30;99.90
2889;DHT22;1453;42.708;23.282;2022-08-21T12:59:05;25.60;99.90
2889;DHT22;1453;42.708;23.282;2022-08-21T13:04:16;25.30;99.90
2889;DHT22;1453;42.708;23.282;2022-08-21T13:06:52;25.30;99.90
2889;DHT22;1453;42.708;23.282;2022-08-21T13:09:30;25.30;99.90
2889;DHT22;1453;42.708;23.282;2022-08-21T13:11:57;25.30;99.90
2889;DHT22;1453;42.708;23.282;2022-08-21T13:14:44;25.40;99.90
2889;DHT22;1453;42.708;23.282;2022-08-21T13:17:16;25.60;99.90
2889;DHT22;1453;42.708;23.282;2022-08-21T13:20:19;25.50;99.90
2889;DHT22;1453;42.708;23.282;2022-08-21T13:22:52;25.70;99.90
2889;DHT22;1453;42.708;23.282;2022-08-21T13:25:25;25.50;99.90
2889;DHT22;1453;42.708;23.282;2022-08-21T13:30:24;25.70;99.90
2889;DHT22;1453;42.708;23.282;2022-08-21T13:32:54;25.80;99.90
2889;DHT22;1453;42.708;23.282;2022-08-21T13:35:28;26.00;99.90
2889;DHT22;1453;42.708;23.282;2022-08-21T13:37:58;26.20;99.90
2889;DHT22;1453;42.708;23.282;2022-08-21T13:40:28;26.50;99.90
2889;DHT22;1453;42.708;23.282;2022-08-21T13:42:57;26.70;99.90
2889;DHT22;1453;42.708;23.282;2022-08-21T13:45:30;26.60;99.90
2889;DHT22;1453;42.708;23.282;2022-08-21T13:48:00;26.70;99.90
2889;DHT22;1453;42.708;23.282;2022-08-21T13:50:27;26.60;99.90
2889;DHT22;1453;42.708;23.282;2022-08-21T13:53:02;26.20;99.90
2889;DHT22;1453;42.708;23.282;2022-08-21T13:55:38;26.20;99.90
2889;DHT22;1453;42.708;23.282;2022-08-21T13:58:07;26.20;99.90
2889;DHT22;1453;42.708;23.282;2022-08-21T14:00:50;26.00;99.90
2889;DHT22;1453;42.708;23.282;2022-08-21T14:03:34;26.10;99.90
2889;DHT22;1453;42.708;23.282;2022-08-21T14:06:18;26.30;99.90
2889;DHT22;1453;42.708;23.282;2022-08-21T14:08:55;26.30;99.90
2889;DHT22;1453;42.708;23.282;2022-08-21T14:11:24;26.80;99.90
2889;DHT22;1453;42.708;23.282;2022-08-21T14:13:58;27.20;99.90
2889;DHT22;1453;42.708;23.282;2022-08-21T14:16:29;27.40;99.90
2889;DHT22;1453;42.708;23.282;2022-08-21T14:19:20;27.20;99.90
2889;DHT22;1453;42.708;23.282;2022-08-21T14:21:48;26.80;99.90
2889;DHT22;1453;42.708;23.282;2022-08-21T14:26:55;26.20;99.90
2889;DHT22;1453;42.708;23.282;2022-08-21T14:29:25;26.00;99.90
2889;DHT22;1453;42.708;23.282;2022-08-21T14:31:56;25.90;99.90
2889;DHT22;1453;42.708;23.282;2022-08-21T14:34:26;25.60;99.90
2889;DHT22;1453;42.708;23.282;2022-08-21T14:36:53;25.40;99.90
2889;DHT22;1453;42.708;23.282;2022-08-21T14:39:20;25.40;99.90
2889;DHT22;1453;42.708;23.282;2022-08-21T14:41:46;25.20;99.90
2889;DHT22;1453;42.708;23.282;2022-08-21T14:44:15;25.20;99.90
2889;DHT22;1453;42.708;23.282;2022-08-21T14:46:42;25.10;99.90
2889;DHT22;1453;42.708;23.282;2022-08-21T14:49:08;25.20;99.90
2889;DHT22;1453;42.708;23.282;2022-08-21T14:51:36;25.20;99.90
2889;DHT22;1453;42.708;23.282;2022-08-21T14:54:04;25.10;99.90
2889;DHT22;1453;42.708;23.282;2022-08-21T14:56:31;25.00;99.90
2889;DHT22;1453;42.708;23.282;2022-08-21T14:59:02;25.10;99.90
2889;DHT22;1453;42.708;23.282;2022-08-21T15:01:35;25.00;99.90
2889;DHT22;1453;42.708;23.282;2022-08-21T15:04:02;24.90;99.90
2889;DHT22;1453;42.708;23.282;2022-08-21T15:06:28;25.00;99.90
2889;DHT22;1453;42.708;23.282;2022-08-21T15:08:54;25.00;99.90
2889;DHT22;1453;42.708;23.282;2022-08-21T15:11:21;25.30;99.90
2889;DHT22;1453;42.708;23.282;2022-08-21T15:13:53;25.40;99.90
2889;DHT22;1453;42.708;23.282;2022-08-21T15:16:22;25.40;99.90
2889;DHT22;1453;42.708;23.282;2022-08-21T15:18:48;25.00;99.90
2889;DHT22;1453;42.708;23.282;2022-08-21T15:21:14;24.80;99.90
2889;DHT22;1453;42.708;23.282;2022-08-21T15:23:40;24.60;99.90
2889;DHT22;1453;42.708;23.282;2022-08-21T15:26:06;24.30;99.90
2889;DHT22;1453;42.708;23.282;2022-08-21T15:28:33;24.60;99.90
2889;DHT22;1453;42.708;23.282;2022-08-21T15:31:00;25.00;99.90
2889;DHT22;1453;42.708;23.282;2022-08-21T15:33:26;25.40;99.90
2889;DHT22;1453;42.708;23.282;2022-08-21T15:35:52;25.50;99.90
2889;DHT22;1453;42.708;23.282;2022-08-21T15:38:18;25.50;99.90
2889;DHT22;1453;42.708;23.282;2022-08-21T15:40:44;25.70;99.90
2889;DHT22;1453;42.708;23.282;2022-08-21T15:43:26;25.50;99.90
2889;DHT22;1453;42.708;23.282;2022-08-21T15:45:56;25.20;99.90
2889;DHT22;1453;42.708;23.282;2022-08-21T15:48:23;25.30;99.90
2889;DHT22;1453;42.708;23.282;2022-08-21T15:50:49;25.10;99.90
2889;DHT22;1453;42.708;23.282;2022-08-21T15:53:15;25.30;99.90
2889;DHT22;1453;42.708;23.282;2022-08-21T15:55:42;25.30;99.90
2889;DHT22;1453;42.708;23.282;2022-08-21T15:58:15;25.30;99.90
2889;DHT22;1453;42.708;23.282;2022-08-21T16:00:42;25.40;99.90
2889;DHT22;1453;42.708;23.282;2022-08-21T16:03:11;25.30;99.90
2889;DHT22;1453;42.708;23.282;2022-08-21T16:05:41;25.60;99.90
2889;DHT22;1453;42.708;23.282;2022-08-21T16:08:07;25.50;99.90
2889;DHT22;1453;42.708;23.282;2022-08-21T16:10:36;25.30;99.90
2889;DHT22;1453;42.708;23.282;2022-08-21T16:13:04;25.20;99.90
2889;DHT22;1453;42.708;23.282;2022-08-21T16:15:33;25.20;99.90
2889;DHT22;1453;42.708;23.282;2022-08-21T16:17:59;25.20;99.90
2889;DHT22;1453;42.708;23.282;2022-08-21T16:20:28;25.30;99.90
2889;DHT22;1453;42.708;23.282;2022-08-21T16:22:56;25.40;99.90
2889;DHT22;1453;42.708;23.282;2022-08-21T16:25:23;24.90;99.90
2889;DHT22;1453;42.708;23.282;2022-08-21T16:27:53;25.10;99.90
2889;DHT22;1453;42.708;23.282;2022-08-21T16:30:20;24.60;99.90
2889;DHT22;1453;42.708;23.282;2022-08-21T16:32:47;24.40;99.90
2889;DHT22;1453;42.708;23.282;2022-08-21T16:35:16;24.20;99.90
2889;DHT22;1453;42.708;23.282;2022-08-21T16:37:43;24.10;99.90
2889;DHT22;1453;42.708;23.282;2022-08-21T16:40:10;24.30;99.90
2889;DHT22;1453;42.708;23.282;2022-08-21T16:42:38;24.20;99.90
2889;DHT22;1453;42.708;23.282;2022-08-21T16:45:07;24.30;99.90
2889;DHT22;1453;42.708;23.282;2022-08-21T16:47:35;24.30;99.90
2889;DHT22;1453;42.708;23.282;2022-08-21T16:50:01;24.40;99.90
2889;DHT22;1453;42.708;23.282;2022-08-21T16:52:27;24.50;99.90
2889;DHT22;1453;42.708;23.282;2022-08-21T16:54:53;24.40;99.90
2889;DHT22;1453;42.708;23.282;2022-08-21T16:57:19;24.40;99.90
2889;DHT22;1453;42.708;23.282;2022-08-21T16:59:45;24.50;99.90
2889;DHT22;1453;42.708;23.282;2022-08-21T17:02:25;24.30;99.90
2889;DHT22;1453;42.708;23.282;2022-08-21T17:05:00;24.20;99.90
2889;DHT22;1453;42.708;23.282;2022-08-21T17:07:28;24.40;99.90
2889;DHT22;1453;42.708;23.282;2022-08-21T17:09:54;24.60;99.90
2889;DHT22;1453;42.708;23.282;2022-08-21T17:12:20;24.60;99.90
2889;DHT22;1453;42.708;23.282;2022-08-21T17:14:47;24.60;99.90
2889;DHT22;1453;42.708;23.282;2022-08-21T17:17:14;24.60;99.90
2889;DHT22;1453;42.708;23.282;2022-08-21T17:19:41;24.60;99.90
2889;DHT22;1453;42.708;23.282;2022-08-21T17:22:07;24.60;99.90
2889;DHT22;1453;42.708;23.282;2022-08-21T17:24:34;24.60;99.90
2889;DHT22;1453;42.708;23.282;2022-08-21T17:27:00;24.30;99.90
2889;DHT22;1453;42.708;23.282;2022-08-21T17:29:30;24.10;99.90
2889;DHT22;1453;42.708;23.282;2022-08-21T17:31:59;24.00;99.90
2889;DHT22;1453;42.708;23.282;2022-08-21T17:34:25;23.90;99.90
2889;DHT22;1453;42.708;23.282;2022-08-21T17:36:51;23.90;99.90
2889;DHT22;1453;42.708;23.282;2022-08-21T17:39:17;24.10;99.90
2889;DHT22;1453;42.708;23.282;2022-08-21T17:41:44;24.00;99.90
2889;DHT22;1453;42.708;23.282;2022-08-21T17:44:11;23.80;99.90